桃園國際機場 - 塔臺(二站)

METAR RCTP 161700Z 06014KT 4000 -RA BR SCT005 BKN009 BKN025 17/16 Q1013 NOSIG RMK A2994 RA AMT 2.4MM=

站台狀態:Offline
最後更新:2022-05-17 01:30:01